Time;durP1;ratioP1;P1;durP2;ratioP2;P2;SDS_P1;SDS_P2;PMS_P1;PMS_P2;Temp;Humidity;BMP_temperature;BMP_pressure;BME280_temperature;BME280_humidity;BME280_pressure;Samples;Min_cycle;Max_cycle;Signal;HPM_P1;HPM_P2
2023/10/12 00:00:27;;;;;;;1999.90;999.90;;;20.30;99.90;;;;;;5094614;28;20445;-74
2023/10/12 00:02:57;;;;;;;1999.90;999.90;;;20.20;99.90;;;;;;5102800;28;20445;-73
2023/10/12 00:05:27;;;;;;;1999.90;999.90;;;20.20;99.90;;;;;;5095022;28;20517;-74
2023/10/12 00:07:56;;;;;;;1999.90;999.90;;;20.20;99.90;;;;;;5090754;28;20601;-75
2023/10/12 00:10:23;;;;;;;1999.90;999.90;;;20.20;99.90;;;;;;5097502;28;20435;-74
2023/10/12 00:12:53;;;;;;;1999.90;999.90;;;20.20;99.90;;;;;;5094734;28;20448;-74
2023/10/12 00:15:25;;;;;;;1999.90;999.90;;;20.20;99.90;;;;;;5098858;27;20777;-73
2023/10/12 00:17:53;;;;;;;1999.90;999.90;;;20.10;99.90;;;;;;5097082;28;20425;-74
2023/10/12 00:20:25;;;;;;;1999.90;999.90;;;20.10;99.90;;;;;;5096235;28;20915;-74
2023/10/12 00:22:52;;;;;;;1999.90;999.90;;;20.10;99.90;;;;;;5101766;28;21004;-74
2023/10/12 00:25:20;;;;;;;1999.90;999.90;;;20.10;99.90;;;;;;5101925;28;20921;-74
2023/10/12 00:27:48;;;;;;;1999.90;999.90;;;20.00;99.90;;;;;;5103179;28;20529;-73
2023/10/12 00:30:16;;;;;;;1999.90;999.90;;;20.00;99.90;;;;;;5100795;28;20434;-72
2023/10/12 00:32:45;;;;;;;1999.90;999.90;;;20.00;99.90;;;;;;5097794;28;20428;-74
2023/10/12 00:35:13;;;;;;;1999.90;999.90;;;20.20;99.90;;;;;;5099980;28;20459;-74
2023/10/12 00:37:41;;;;;;;1999.90;999.90;;;19.90;99.90;;;;;;5093120;28;20436;-74
2023/10/12 00:40:26;;;;;;;1999.90;999.90;;;19.90;99.90;;;;;;5099194;28;20507;-74
2023/10/12 00:42:53;;;;;;;1999.90;999.90;;;19.90;99.90;;;;;;5095280;28;20432;-74
2023/10/12 00:45:27;;;;;;;1999.90;999.90;;;19.90;99.90;;;;;;5098329;28;20513;-74
2023/10/12 00:48:01;;;;;;;1999.90;999.90;;;19.90;99.90;;;;;;5097111;28;20462;-73
2023/10/12 00:50:29;;;;;;;1999.90;999.90;;;19.90;99.90;;;;;;5099854;28;20428;-74
2023/10/12 00:53:02;;;;;;;1999.90;999.90;;;19.80;99.90;;;;;;5093639;28;20483;-74
2023/10/12 00:55:36;;;;;;;1999.90;999.90;;;19.80;99.90;;;;;;5102585;28;20469;-74
2023/10/12 00:58:05;;;;;;;1999.90;999.90;;;19.80;99.90;;;;;;5100243;28;20956;-74
2023/10/12 01:00:35;;;;;;;1999.90;999.90;;;19.80;99.90;;;;;;5094358;28;20435;-74
2023/10/12 01:03:29;;;;;;;1999.90;999.90;;;19.80;99.90;;;;;;5100424;28;20519;-74
2023/10/12 01:08:46;;;;;;;1999.90;999.90;;;19.80;99.90;;;;;;5100389;28;20507;-74
2023/10/12 01:11:19;;;;;;;1999.90;999.90;;;19.80;99.90;;;;;;5097902;28;20477;-74
2023/10/12 01:13:48;;;;;;;1999.90;999.90;;;19.80;99.90;;;;;;5089111;28;20508;-74
2023/10/12 01:16:23;;;;;;;1999.90;999.90;;;19.80;99.90;;;;;;5092924;28;20433;-73
2023/10/12 01:18:59;;;;;;;1999.90;999.90;;;19.90;99.90;;;;;;5094848;28;20428;-74
2023/10/12 01:21:28;;;;;;;1999.90;999.90;;;19.90;99.90;;;;;;5101988;28;20513;-73
2023/10/12 01:24:01;;;;;;;1999.90;999.90;;;19.90;99.90;;;;;;5097649;28;20438;-74
2023/10/12 01:26:31;;;;;;;1999.90;999.90;;;19.90;99.90;;;;;;5091481;28;20530;-74
2023/10/12 01:28:59;;;;;;;1999.90;999.90;;;19.80;99.90;;;;;;5092397;28;20418;-74
2023/10/12 01:31:29;;;;;;;1999.90;999.90;;;19.80;99.90;;;;;;5097479;28;20545;-74
2023/10/12 01:33:57;;;;;;;1999.90;999.90;;;19.80;99.90;;;;;;5099277;28;20806;-74
2023/10/12 01:36:30;;;;;;;1999.90;999.90;;;19.80;99.90;;;;;;5090028;28;20525;-74
2023/10/12 01:39:11;;;;;;;1999.90;999.90;;;19.80;99.90;;;;;;5095161;28;20472;-74
2023/10/12 01:41:40;;;;;;;1999.90;999.90;;;19.80;99.90;;;;;;5096887;28;20519;-74
2023/10/12 01:44:10;;;;;;;1999.90;999.90;;;19.80;99.90;;;;;;5100742;28;20429;-73
2023/10/12 01:46:39;;;;;;;1999.90;999.90;;;19.80;99.90;;;;;;5094027;28;20432;-74
2023/10/12 01:49:06;;;;;;;1999.90;999.90;;;19.70;99.90;;;;;;5095290;28;20914;-74
2023/10/12 01:51:36;;;;;;;1999.90;999.90;;;19.80;99.90;;;;;;5100539;28;20930;-74
2023/10/12 01:54:05;;;;;;;1999.90;999.90;;;19.80;99.90;;;;;;5099857;28;20438;-73
2023/10/12 01:56:34;;;;;;;1999.90;999.90;;;19.80;99.90;;;;;;5097607;28;20432;-74
2023/10/12 01:59:04;;;;;;;1999.90;999.90;;;19.80;99.90;;;;;;5106667;28;20486;-74
2023/10/12 02:01:33;;;;;;;1999.90;999.90;;;19.80;99.90;;;;;;5104989;28;20987;-74
2023/10/12 02:04:02;;;;;;;1999.90;999.90;;;19.80;99.90;;;;;;5094075;28;20505;-74
2023/10/12 02:06:29;;;;;;;1999.90;999.90;;;19.80;99.90;;;;;;5101361;28;20519;-74
2023/10/12 02:09:02;;;;;;;1999.90;999.90;;;19.80;99.90;;;;;;5102061;28;20481;-74
2023/10/12 02:11:42;;;;;;;1999.90;999.90;;;19.90;99.90;;;;;;5098868;28;20901;-74
2023/10/12 02:14:12;;;;;;;1999.90;999.90;;;20.00;99.90;;;;;;5099271;28;20466;-74
2023/10/12 02:16:52;;;;;;;1999.90;999.90;;;19.70;99.90;;;;;;5104920;28;20430;-73
2023/10/12 02:19:31;;;;;;;1999.90;999.90;;;19.70;99.90;;;;;;5094210;28;20443;-74
2023/10/12 02:22:01;;;;;;;1999.90;999.90;;;19.60;99.90;;;;;;5101000;28;20917;-74
2023/10/12 02:24:28;;;;;;;1999.90;999.90;;;19.60;99.90;;;;;;5098798;28;20432;-74
2023/10/12 02:27:00;;;;;;;1999.90;999.90;;;19.60;99.90;;;;;;5104070;28;20427;-74
2023/10/12 02:29:29;;;;;;;1999.90;999.90;;;19.60;99.90;;;;;;5104699;28;20501;-74
2023/10/12 02:31:58;;;;;;;1999.90;999.90;;;19.60;99.90;;;;;;5093705;28;20432;-74
2023/10/12 02:34:27;;;;;;;1999.90;999.90;;;19.60;99.90;;;;;;5105425;28;20429;-74
2023/10/12 02:37:07;;;;;;;1999.90;999.90;;;19.60;99.90;;;;;;5100906;28;20472;-74
2023/10/12 02:39:39;;;;;;;1999.90;999.90;;;19.70;99.90;;;;;;5105140;28;20496;-74
2023/10/12 02:42:17;;;;;;;1999.90;999.90;;;19.70;99.90;;;;;;5096502;28;20441;-74
2023/10/12 02:44:57;;;;;;;1999.90;999.90;;;19.50;99.90;;;;;;5096619;28;20424;-73
2023/10/12 02:47:24;;;;;;;1999.90;999.90;;;19.40;99.90;;;;;;5100356;28;20491;-74
2023/10/12 02:50:00;;;;;;;1999.90;999.90;;;19.30;99.90;;;;;;5105975;28;20432;-74
2023/10/12 02:52:27;;;;;;;1999.90;999.90;;;19.40;99.90;;;;;;5093997;28;20506;-74
2023/10/12 02:54:55;;;;;;;1999.90;999.90;;;19.20;99.90;;;;;;5097298;28;20465;-74
2023/10/12 02:57:25;;;;;;;1999.90;999.90;;;19.10;99.90;;;;;;5098284;28;20987;-75
2023/10/12 02:59:58;;;;;;;1999.90;999.90;;;19.10;99.90;;;;;;5100513;28;20456;-74
2023/10/12 03:02:32;;;;;;;1999.90;999.90;;;19.10;99.90;;;;;;5094621;28;21123;-73
2023/10/12 03:05:01;;;;;;;1999.90;999.90;;;19.10;99.90;;;;;;5094895;28;20439;-74
2023/10/12 03:07:28;;;;;;;1999.90;999.90;;;19.10;99.90;;;;;;5092713;28;20458;-74
2023/10/12 03:09:58;;;;;;;1999.90;999.90;;;19.10;99.90;;;;;;5097870;28;20501;-75
2023/10/12 03:12:34;;;;;;;1999.90;999.90;;;19.10;99.90;;;;;;5094678;28;20420;-74
2023/10/12 03:15:11;;;;;;;1999.90;999.90;;;18.90;99.90;;;;;;5092507;28;20425;-74
2023/10/12 03:17:41;;;;;;;1999.90;999.90;;;18.90;99.90;;;;;;5099486;28;20423;-74
2023/10/12 03:20:17;;;;;;;1999.90;999.90;;;18.70;99.90;;;;;;5096663;28;20430;-72
2023/10/12 03:22:46;;;;;;;1999.90;999.90;;;18.60;99.90;;;;;;5094662;28;20785;-74
2023/10/12 03:25:19;;;;;;;1999.90;999.90;;;18.70;99.90;;;;;;5091890;28;20426;-74
2023/10/12 03:27:51;;;;;;;1999.90;999.90;;;18.60;99.90;;;;;;5095233;28;20436;-73
2023/10/12 03:30:18;;;;;;;1999.90;999.90;;;18.40;99.90;;;;;;5100260;28;20422;-74
2023/10/12 03:32:45;;;;;;;1999.90;999.90;;;18.40;99.90;;;;;;5100379;28;20477;-73
2023/10/12 03:35:13;;;;;;;1999.90;999.90;;;18.30;99.90;;;;;;5090959;28;20434;-73
2023/10/12 03:37:47;;;;;;;1999.90;999.90;;;18.30;99.90;;;;;;5097186;28;20434;-73
2023/10/12 03:43:25;;;;;;;1999.90;999.90;;;18.10;99.90;;;;;;5039566;28;20780;-74
2023/10/12 03:46:06;;;;;;;1999.90;999.90;;;18.10;99.90;;;;;;5038134;28;20913;-74
2023/10/12 03:48:51;;;;;;;1999.90;999.90;;;18.10;99.90;;;;;;5077651;28;20426;-74
2023/10/12 03:51:37;;;;;;;1999.90;999.90;;;18.20;99.90;;;;;;5092314;28;20479;-73
2023/10/12 03:54:11;;;;;;;1999.90;999.90;;;18.20;99.90;;;;;;5095254;28;20429;-73
2023/10/12 03:56:40;;;;;;;1999.90;999.90;;;18.10;99.90;;;;;;5099387;27;20451;-74
2023/10/12 03:59:08;;;;;;;1999.90;999.90;;;18.20;99.90;;;;;;5103038;28;20933;-73
2023/10/12 04:01:40;;;;;;;1999.90;999.90;;;18.10;99.90;;;;;;5099697;28;20436;-73
2023/10/12 04:04:16;;;;;;;1999.90;999.90;;;18.10;99.90;;;;;;5102932;28;20909;-72
2023/10/12 04:07:04;;;;;;;1999.90;999.90;;;18.70;99.90;;;;;;5093429;28;20506;-73
2023/10/12 04:09:31;;;;;;;1999.90;999.90;;;17.90;99.90;;;;;;5099228;28;20460;-73
2023/10/12 04:12:11;;;;;;;1999.90;999.90;;;17.90;99.90;;;;;;5094440;28;20906;-73
2023/10/12 04:14:48;;;;;;;1999.90;999.90;;;17.90;99.90;;;;;;5089577;28;20460;-73
2023/10/12 04:25:46;;;;;;;1999.90;999.90;;;17.80;99.90;;;;;;5094659;28;20431;-73
2023/10/12 04:28:22;;;;;;;1999.90;999.90;;;17.80;99.90;;;;;;5104029;28;20420;-73
2023/10/12 04:33:49;;;;;;;1999.90;999.90;;;17.80;99.90;;;;;;5091241;28;20640;-73
2023/10/12 04:36:23;;;;;;;1999.90;999.90;;;17.70;99.90;;;;;;5091048;28;20524;-73
2023/10/12 04:39:11;;;;;;;1999.90;999.90;;;17.60;99.90;;;;;;5105958;28;20819;-72
2023/10/12 04:41:46;;;;;;;1999.90;999.90;;;17.50;99.90;;;;;;5092057;28;20489;-73
2023/10/12 04:44:39;;;;;;;1999.90;999.90;;;17.40;99.90;;;;;;5098545;28;20806;-73
2023/10/12 04:47:08;;;;;;;1999.90;999.90;;;17.20;99.90;;;;;;5094112;28;20453;-73
2023/10/12 04:49:57;;;;;;;1999.90;999.90;;;17.10;99.90;;;;;;5098779;28;20458;-72
2023/10/12 04:52:32;;;;;;;1999.90;999.90;;;16.90;99.90;;;;;;5099041;28;20433;-72
2023/10/12 04:55:06;;;;;;;1999.90;999.90;;;16.80;99.90;;;;;;5096425;28;20412;-72
2023/10/12 04:57:34;;;;;;;1999.90;999.90;;;16.70;99.90;;;;;;5090417;28;20445;-72
2023/10/12 05:00:09;;;;;;;1999.90;999.90;;;16.60;99.90;;;;;;5101682;28;20801;-73
2023/10/12 05:02:53;;;;;;;1999.90;999.90;;;16.50;99.90;;;;;;5095530;28;20511;-72
2023/10/12 05:08:02;;;;;;;1999.90;999.90;;;16.40;99.90;;;;;;5091657;28;20511;-72
2023/10/12 05:10:41;;;;;;;1999.90;999.90;;;16.40;99.90;;;;;;5090320;28;20428;-71
2023/10/12 05:13:10;;;;;;;1999.90;999.90;;;16.50;99.90;;;;;;5090626;28;20495;-73
2023/10/12 05:15:39;;;;;;;1999.90;999.90;;;16.40;99.90;;;;;;5091622;28;20443;-72
2023/10/12 05:18:08;;;;;;;1999.90;999.90;;;16.40;99.90;;;;;;5093176;28;20513;-71
2023/10/12 05:20:35;;;;;;;1999.90;999.90;;;16.30;99.90;;;;;;5092196;28;20806;-72
2023/10/12 05:23:04;;;;;;;1999.90;999.90;;;16.30;99.90;;;;;;5090440;28;20940;-72
2023/10/12 05:25:47;;;;;;;1999.90;999.90;;;16.20;99.90;;;;;;5095990;28;20424;-72
2023/10/12 05:28:14;;;;;;;1999.90;999.90;;;16.10;99.90;;;;;;5091443;28;20502;-71
2023/10/12 05:30:47;;;;;;;1999.90;999.90;;;16.10;99.90;;;;;;5097275;28;20420;-72
2023/10/12 05:33:37;;;;;;;1999.90;999.90;;;16.10;99.90;;;;;;5096761;28;20435;-72
2023/10/12 05:36:08;;;;;;;1999.90;999.90;;;16.20;99.90;;;;;;5100416;28;20458;-71
2023/10/12 05:38:36;;;;;;;1999.90;999.90;;;16.10;99.90;;;;;;5092654;28;20486;-71
2023/10/12 05:41:05;;;;;;;1999.90;999.90;;;16.00;99.90;;;;;;5098001;28;20887;-71
2023/10/12 05:43:33;;;;;;;1999.90;999.90;;;16.10;99.90;;;;;;5102602;28;20429;-72
2023/10/12 05:46:04;;;;;;;1999.90;999.90;;;16.10;99.90;;;;;;5103206;28;20498;-72
2023/10/12 05:48:34;;;;;;;1999.90;999.90;;;16.00;99.90;;;;;;5100734;28;20431;-72
2023/10/12 05:51:03;;;;;;;1999.90;999.90;;;16.00;99.90;;;;;;5106453;28;20430;-73
2023/10/12 05:53:32;;;;;;;1999.90;999.90;;;16.10;99.90;;;;;;5097594;28;20436;-72
2023/10/12 05:56:01;;;;;;;1999.90;999.90;;;16.10;99.90;;;;;;5100141;28;20565;-72
2023/10/12 05:58:27;;;;;;;1999.90;999.90;;;16.10;99.90;;;;;;5103664;28;20887;-72
2023/10/12 06:00:56;;;;;;;1999.90;999.90;;;16.20;99.90;;;;;;5105797;28;20433;-72
2023/10/12 06:03:22;;;;;;;1999.90;999.90;;;16.20;99.90;;;;;;5096799;28;20452;-72
2023/10/12 06:05:51;;;;;;;1999.90;999.90;;;16.30;99.90;;;;;;5110682;28;20428;-72
2023/10/12 06:08:19;;;;;;;1999.90;999.90;;;16.30;99.90;;;;;;5106620;28;20428;-72
2023/10/12 06:10:46;;;;;;;1999.90;999.90;;;16.20;99.90;;;;;;5106479;28;20420;-72
2023/10/12 06:13:14;;;;;;;1999.90;999.90;;;16.30;99.90;;;;;;5098873;28;20797;-71
2023/10/12 06:15:42;;;;;;;1999.90;999.90;;;16.20;99.90;;;;;;5100190;28;20420;-72
2023/10/12 06:18:13;;;;;;;1999.90;999.90;;;16.30;99.90;;;;;;5090943;28;20422;-71
2023/10/12 06:20:42;;;;;;;1999.90;999.90;;;16.40;99.90;;;;;;5094953;28;20451;-71
2023/10/12 06:23:13;;;;;;;1999.90;999.90;;;16.40;99.90;;;;;;5097727;28;22225;-72
2023/10/12 06:25:43;;;;;;;1999.90;999.90;;;16.50;99.90;;;;;;5098719;28;20424;-73
2023/10/12 06:28:17;;;;;;;1999.90;999.90;;;16.60;99.90;;;;;;5096824;28;20430;-73
2023/10/12 06:30:44;;;;;;;1999.90;999.90;;;16.50;99.90;;;;;;5101000;28;20439;-73
2023/10/12 06:33:14;;;;;;;1999.90;999.90;;;16.60;99.90;;;;;;5102453;28;20427;-73
2023/10/12 06:35:58;;;;;;;1999.90;999.90;;;16.50;99.90;;;;;;5094897;28;20435;-73
2023/10/12 06:38:37;;;;;;;1999.90;999.90;;;16.40;99.90;;;;;;5097061;28;20457;-73
2023/10/12 06:43:58;;;;;;;1999.90;999.90;;;16.40;99.90;;;;;;5101222;28;20414;-73
2023/10/12 06:46:27;;;;;;;1999.90;999.90;;;16.50;99.90;;;;;;5106159;28;20476;-73
2023/10/12 06:49:00;;;;;;;1999.90;999.90;;;16.50;99.90;;;;;;5095010;28;20547;-73
2023/10/12 06:51:28;;;;;;;1999.90;999.90;;;16.50;99.90;;;;;;5098874;28;20928;-73
2023/10/12 06:54:17;;;;;;;1999.90;999.90;;;16.50;99.90;;;;;;5095977;28;20497;-74
2023/10/12 06:56:49;;;;;;;1999.90;999.90;;;16.50;99.90;;;;;;5097998;28;20433;-73
2023/10/12 06:59:27;;;;;;;1999.90;999.90;;;16.60;99.90;;;;;;5098053;28;20484;-73
2023/10/12 07:01:57;;;;;;;1999.90;999.90;;;16.60;99.90;;;;;;5091558;28;20456;-73
2023/10/12 07:04:36;;;;;;;1999.90;999.90;;;16.60;99.90;;;;;;5097206;28;21157;-73
2023/10/12 07:07:07;;;;;;;1999.90;999.90;;;16.60;99.90;;;;;;5099696;28;20971;-73
2023/10/12 07:09:39;;;;;;;1999.90;999.90;;;16.70;99.90;;;;;;5099840;28;20466;-73
2023/10/12 07:12:08;;;;;;;1999.90;999.90;;;16.70;99.90;;;;;;5096726;28;20430;-71
2023/10/12 07:14:38;;;;;;;1999.90;999.90;;;16.60;99.90;;;;;;5091874;28;20434;-73
2023/10/12 07:17:07;;;;;;;1999.90;999.90;;;16.60;99.90;;;;;;5097893;28;20461;-73
2023/10/12 07:19:35;;;;;;;1999.90;999.90;;;16.80;99.90;;;;;;5100058;28;20430;-73
2023/10/12 07:22:07;;;;;;;1999.90;999.90;;;16.80;99.90;;;;;;5103412;27;21094;-73
2023/10/12 07:24:38;;;;;;;1999.90;999.90;;;16.80;99.90;;;;;;5097823;28;20411;-73
2023/10/12 07:27:11;;;;;;;1999.90;999.90;;;16.90;99.90;;;;;;5101958;28;20950;-73
2023/10/12 07:29:39;;;;;;;1999.90;999.90;;;16.80;99.90;;;;;;5097961;28;20432;-73
2023/10/12 07:32:16;;;;;;;1999.90;999.90;;;16.80;99.90;;;;;;5095758;28;20542;-73
2023/10/12 07:34:43;;;;;;;1999.90;999.90;;;16.90;99.90;;;;;;5100755;28;20443;-73
2023/10/12 07:37:13;;;;;;;1999.90;999.90;;;17.00;99.90;;;;;;5097152;28;20426;-73
2023/10/12 07:39:42;;;;;;;1999.90;999.90;;;17.00;99.90;;;;;;5098773;28;20424;-73
2023/10/12 07:42:12;;;;;;;1999.90;999.90;;;17.10;99.90;;;;;;5094981;28;20460;-73
2023/10/12 07:44:41;;;;;;;1999.90;999.90;;;17.10;99.90;;;;;;5094524;28;21144;-75
2023/10/12 07:47:18;;;;;;;1999.90;999.90;;;17.10;99.90;;;;;;5091088;28;20432;-73
2023/10/12 07:49:50;;;;;;;1999.90;999.90;;;17.20;99.90;;;;;;5089577;28;20594;-73
2023/10/12 07:52:26;;;;;;;1999.90;999.90;;;17.30;99.90;;;;;;5098015;27;20547;-73
2023/10/12 07:54:57;;;;;;;1999.90;999.90;;;17.30;99.90;;;;;;5097481;28;20493;-73
2023/10/12 07:57:29;;;;;;;1999.90;999.90;;;17.50;99.90;;;;;;5101900;28;20451;-73
2023/10/12 08:00:18;;;;;;;1999.90;999.90;;;17.50;99.90;;;;;;5094643;28;20432;-73
2023/10/12 08:05:43;;;;;;;1999.90;999.90;;;17.70;99.90;;;;;;5094593;28;20525;-74
2023/10/12 08:08:09;;;;;;;1999.90;999.90;;;17.70;99.90;;;;;;5099095;28;20838;-73
2023/10/12 08:10:56;;;;;;;1999.90;999.90;;;17.70;99.90;;;;;;5088496;28;20975;-72
2023/10/12 08:13:27;;;;;;;1999.90;999.90;;;17.60;99.90;;;;;;5091890;28;20429;-73
2023/10/12 08:15:58;;;;;;;1999.90;999.90;;;17.60;99.90;;;;;;5093463;28;20421;-75
2023/10/12 08:21:31;;;;;;;1999.90;999.90;;;17.60;99.90;;;;;;5014574;28;20426;-73
2023/10/12 08:24:09;;;;;;;1999.90;999.90;;;17.50;99.90;;;;;;5017288;28;20433;-73
2023/10/12 08:26:49;;;;;;;1999.90;999.90;;;17.40;99.90;;;;;;5064899;28;20430;-73
2023/10/12 08:29:57;;;;;;;1999.90;999.90;;;17.40;99.90;;;;;;5096628;28;20420;-73
2023/10/12 08:32:27;;;;;;;1999.90;999.90;;;17.40;99.90;;;;;;5095711;28;20416;-73
2023/10/12 08:35:37;;;;;;;1999.90;999.90;;;17.50;99.90;;;;;;5092310;28;20425;-73
2023/10/12 08:38:11;;;;;;;1999.90;999.90;;;17.50;99.90;;;;;;5096166;28;20431;-73
2023/10/12 08:41:20;;;;;;;1999.90;999.90;;;17.50;99.90;;;;;;5092061;28;20976;-73
2023/10/12 08:43:45;;;;;;;1999.90;999.90;;;17.40;99.90;;;;;;5093301;28;20880;-72
2023/10/12 08:46:20;;;;;;;1999.90;999.90;;;17.60;99.90;;;;;;5097481;28;20441;-73
2023/10/12 08:48:53;;;;;;;1999.90;999.90;;;17.70;99.90;;;;;;5088733;28;20511;-72
2023/10/12 08:51:28;;;;;;;1999.90;999.90;;;17.70;99.90;;;;;;5101821;28;20419;-73
2023/10/12 08:53:57;;;;;;;1999.90;999.90;;;17.60;99.90;;;;;;5096158;28;20436;-73
2023/10/12 08:56:26;;;;;;;1999.90;999.90;;;17.60;99.90;;;;;;5098576;28;20426;-73
2023/10/12 08:58:57;;;;;;;1999.90;999.90;;;17.70;99.90;;;;;;5099403;28;20507;-73
2023/10/12 09:01:26;;;;;;;1999.90;999.90;;;17.60;99.90;;;;;;5098264;28;20425;-72
2023/10/12 09:04:00;;;;;;;1999.90;999.90;;;17.60;99.90;;;;;;5103383;28;20428;-73
2023/10/12 09:06:53;;;;;;;1999.90;999.90;;;17.60;99.90;;;;;;5094196;28;20812;-72
2023/10/12 09:09:48;;;;;;;1999.90;999.90;;;17.80;99.90;;;;;;5090586;28;20445;-72
2023/10/12 09:12:12;;;;;;;1999.90;999.90;;;17.90;99.90;;;;;;5092257;28;20823;-72
2023/10/12 09:14:44;;;;;;;1999.90;999.90;;;18.00;99.90;;;;;;5092009;28;20480;-73
2023/10/12 09:17:27;;;;;;;1999.90;999.90;;;18.10;99.90;;;;;;5096670;28;20412;-72
2023/10/12 09:19:58;;;;;;;1999.90;999.90;;;18.10;99.90;;;;;;5105011;28;20424;-73
2023/10/12 09:22:29;;;;;;;1999.90;999.90;;;17.90;99.90;;;;;;5092040;28;20421;-73
2023/10/12 09:25:03;;;;;;;1999.90;999.90;;;17.70;99.90;;;;;;5098364;28;20412;-72
2023/10/12 09:27:36;;;;;;;1999.90;999.90;;;17.80;99.90;;;;;;5099785;28;20408;-72
2023/10/12 09:30:15;;;;;;;1999.90;999.90;;;17.40;99.90;;;;;;5110443;28;20465;-71
2023/10/12 09:32:57;;;;;;;1999.90;999.90;;;16.80;99.90;;;;;;5106587;28;20490;-72
2023/10/12 09:35:33;;;;;;;1999.90;999.90;;;16.20;99.90;;;;;;5107483;28;20422;-72
2023/10/12 09:38:04;;;;;;;1999.90;999.90;;;15.80;99.90;;;;;;5109022;28;20423;-72
2023/10/12 09:40:35;;;;;;;1999.90;999.90;;;15.60;99.90;;;;;;5103644;28;20432;-71
2023/10/12 09:43:06;;;;;;;1999.90;999.90;;;15.40;99.90;;;;;;5102450;28;20422;-72
2023/10/12 09:45:39;;;;;;;1999.90;999.90;;;15.20;99.90;;;;;;5100957;28;20451;-72
2023/10/12 09:48:11;;;;;;;1999.90;999.90;;;15.20;99.90;;;;;;5101567;28;20418;-71
2023/10/12 09:50:41;;;;;;;1999.90;999.90;;;15.10;99.90;;;;;;5097948;28;20479;-73
2023/10/12 09:53:21;;;;;;;1999.90;999.90;;;15.00;99.90;;;;;;5095446;28;20425;-73
2023/10/12 09:56:03;;;;;;;1999.90;999.90;;;15.00;99.90;;;;;;5099348;28;20428;-72
2023/10/12 09:58:33;;;;;;;1999.90;999.90;;;14.90;99.90;;;;;;5104143;28;20431;-72
2023/10/12 10:01:07;;;;;;;1999.90;999.90;;;14.80;99.90;;;;;;5100885;28;20761;-72
2023/10/12 10:03:43;;;;;;;1999.90;999.90;;;14.80;99.90;;;;;;5102200;28;20521;-72
2023/10/12 10:06:19;;;;;;;1999.90;999.90;;;14.70;99.90;;;;;;5103354;28;20428;-73
2023/10/12 10:09:09;;;;;;;1999.90;999.90;;;14.70;99.90;;;;;;5099337;28;20421;-72
2023/10/12 10:11:37;;;;;;;1999.90;999.90;;;14.80;99.90;;;;;;5096962;28;20420;-71
2023/10/12 10:14:09;;;;;;;1999.90;999.90;;;14.80;99.90;;;;;;5099426;28;20430;-72
2023/10/12 10:16:46;;;;;;;1999.90;999.90;;;14.80;99.90;;;;;;5094366;28;20435;-73
2023/10/12 10:19:15;;;;;;;1999.90;999.90;;;14.90;99.90;;;;;;5092528;28;20430;-72
2023/10/12 10:21:50;;;;;;;1999.90;999.90;;;14.90;99.90;;;;;;5103752;28;20428;-72
2023/10/12 10:24:20;;;;;;;1999.90;999.90;;;14.90;99.90;;;;;;5097500;28;20512;-72
2023/10/12 10:26:54;;;;;;;1999.90;999.90;;;14.70;99.90;;;;;;5098659;28;20447;-72
2023/10/12 10:29:21;;;;;;;1999.90;999.90;;;14.60;99.90;;;;;;5102869;28;20424;-72
2023/10/12 10:31:52;;;;;;;1999.90;999.90;;;14.50;99.90;;;;;;5102620;28;20420;-71
2023/10/12 10:34:23;;;;;;;1999.90;999.90;;;14.50;99.90;;;;;;5102866;28;20428;-72
2023/10/12 10:36:52;;;;;;;1999.90;999.90;;;14.50;99.90;;;;;;5101965;28;20472;-72
2023/10/12 10:39:29;;;;;;;1999.90;999.90;;;14.40;99.90;;;;;;5101309;28;20432;-73
2023/10/12 10:42:00;;;;;;;1999.90;999.90;;;14.30;99.90;;;;;;5102690;28;20420;-72
2023/10/12 10:44:27;;;;;;;1999.90;999.90;;;14.30;99.90;;;;;;5105521;28;20430;-73
2023/10/12 10:46:58;;;;;;;1999.90;999.90;;;14.30;99.90;;;;;;5105801;28;20424;-72
2023/10/12 10:49:30;;;;;;;1999.90;999.90;;;14.40;99.90;;;;;;5102425;28;20568;-72
2023/10/12 10:52:13;;;;;;;1999.90;999.90;;;14.40;99.90;;;;;;5100023;28;20969;-73
2023/10/12 10:54:51;;;;;;;1999.90;999.90;;;14.40;99.90;;;;;;5102523;28;20936;-72
2023/10/12 10:57:24;;;;;;;1999.90;999.90;;;14.30;99.90;;;;;;5098107;28;20433;-73
2023/10/12 10:59:52;;;;;;;1999.90;999.90;;;14.40;99.90;;;;;;5098234;28;20432;-73
2023/10/12 11:02:21;;;;;;;1999.90;999.90;;;14.40;99.90;;;;;;5099898;28;20469;-72
2023/10/12 11:04:51;;;;;;;1999.90;999.90;;;14.30;99.90;;;;;;5100292;28;20468;-72
2023/10/12 11:07:18;;;;;;;1999.90;999.90;;;14.30;99.90;;;;;;5099164;28;20428;-70
2023/10/12 11:10:05;;;;;;;1999.90;999.90;;;14.10;99.90;;;;;;5101666;28;20476;-71
2023/10/12 11:12:32;;;;;;;1999.90;999.90;;;14.10;99.90;;;;;;5104487;28;20842;-71
2023/10/12 11:15:01;;;;;;;1999.90;999.90;;;14.00;99.90;;;;;;5101493;28;20421;-72
2023/10/12 11:17:35;;;;;;;1999.90;999.90;;;14.10;99.90;;;;;;5091929;28;20819;-71
2023/10/12 11:20:07;;;;;;;1999.90;999.90;;;14.20;99.90;;;;;;5093741;28;20513;-72
2023/10/12 11:22:37;;;;;;;1999.90;999.90;;;14.20;99.90;;;;;;5103616;28;20430;-71
2023/10/12 11:25:04;;;;;;;1999.90;999.90;;;14.20;99.90;;;;;;5098606;28;20424;-71
2023/10/12 11:27:32;;;;;;;1999.90;999.90;;;14.40;99.90;;;;;;5095531;28;21024;-71
2023/10/12 11:30:05;;;;;;;1999.90;999.90;;;14.40;99.90;;;;;;5093822;28;20433;-71
2023/10/12 11:32:51;;;;;;;1999.90;999.90;;;14.40;99.90;;;;;;5103731;28;20426;-72
2023/10/12 11:35:18;;;;;;;1999.90;999.90;;;14.30;99.90;;;;;;5103939;28;20507;-72
2023/10/12 11:37:45;;;;;;;1999.90;999.90;;;14.30;99.90;;;;;;5096241;28;20453;-71
2023/10/12 11:40:28;;;;;;;1999.90;999.90;;;14.40;99.90;;;;;;5095716;27;20431;-72
2023/10/12 11:42:55;;;;;;;1999.90;999.90;;;14.60;99.90;;;;;;5097228;28;20425;-71
2023/10/12 11:45:22;;;;;;;1999.90;999.90;;;14.60;99.90;;;;;;5106743;28;20551;-71
2023/10/12 11:47:50;;;;;;;1999.90;999.90;;;14.60;99.90;;;;;;5099486;28;20420;-71
2023/10/12 11:50:31;;;;;;;1999.90;999.90;;;14.70;99.90;;;;;;5101028;28;20805;-72
2023/10/12 11:52:58;;;;;;;1999.90;999.90;;;14.70;99.90;;;;;;5105466;28;20433;-71
2023/10/12 11:55:31;;;;;;;1999.90;999.90;;;14.60;99.90;;;;;;5101197;28;20914;-71
2023/10/12 11:57:59;;;;;;;1999.90;999.90;;;14.40;99.90;;;;;;5100844;28;20511;-71
2023/10/12 12:00:29;;;;;;;1999.90;999.90;;;14.40;99.90;;;;;;5103369;28;20860;-71
2023/10/12 12:02:59;;;;;;;1999.90;999.90;;;14.50;99.90;;;;;;5092320;28;20433;-72
2023/10/12 12:05:29;;;;;;;1999.90;999.90;;;14.30;99.90;;;;;;5104973;28;20932;-72
2023/10/12 12:07:57;;;;;;;1999.90;999.90;;;14.30;99.90;;;;;;5105064;28;20426;-71
2023/10/12 12:10:27;;;;;;;1999.90;999.90;;;14.30;99.90;;;;;;5094720;28;20447;-72
2023/10/12 12:12:57;;;;;;;1999.90;999.90;;;14.40;99.90;;;;;;5096320;28;20425;-72
2023/10/12 12:15:24;;;;;;;1999.90;999.90;;;14.40;99.90;;;;;;5097083;28;20439;-72
2023/10/12 12:17:51;;;;;;;1999.90;999.90;;;14.50;99.90;;;;;;5104251;28;20494;-71
2023/10/12 12:20:21;;;;;;;1999.90;999.90;;;14.50;99.90;;;;;;5099195;28;20534;-71
2023/10/12 12:22:48;;;;;;;1999.90;999.90;;;14.60;99.90;;;;;;5095441;28;20558;-71
2023/10/12 12:25:18;;;;;;;1999.90;999.90;;;14.60;99.90;;;;;;5102542;28;20434;-71
2023/10/12 12:27:48;;;;;;;1999.90;999.90;;;14.60;99.90;;;;;;5095902;28;20425;-71
2023/10/12 12:30:23;;;;;;;1999.90;999.90;;;14.70;99.90;;;;;;5096956;28;20422;-72
2023/10/12 12:32:50;;;;;;;1999.90;999.90;;;14.90;99.90;;;;;;5100404;28;20549;-71
2023/10/12 12:35:16;;;;;;;1999.90;999.90;;;14.80;99.90;;;;;;5103654;28;20437;-70
2023/10/12 12:37:44;;;;;;;1999.90;999.90;;;14.90;99.90;;;;;;5097734;28;20430;-73
2023/10/12 12:40:29;;;;;;;1999.90;999.90;;;14.80;99.90;;;;;;5094161;28;20934;-71
2023/10/12 12:42:56;;;;;;;1999.90;999.90;;;14.90;99.90;;;;;;5102007;28;20921;-70
2023/10/12 12:45:23;;;;;;;1999.90;999.90;;;14.80;99.90;;;;;;5099680;28;20426;-71
2023/10/12 12:47:49;;;;;;;1999.90;999.90;;;14.90;99.90;;;;;;5095503;28;20420;-72
2023/10/12 12:50:16;;;;;;;1999.90;999.90;;;15.00;99.90;;;;;;5101551;28;20439;-72
2023/10/12 12:52:46;;;;;;;1999.90;999.90;;;15.00;99.90;;;;;;5094946;28;20794;-72